Time;durP1;ratioP1;P1;durP2;ratioP2;P2;SDS_P1;SDS_P2;PMS_P1;PMS_P2;Temp;Humidity;BMP_temperature;BMP_pressure;BME280_temperature;BME280_humidity;BME280_pressure;Samples;Min_cycle;Max_cycle;Signal;HPM_P1;HPM_P2
2021/05/30 00:00:35;;;;;;;;;;;20.10;63.10;;;;;;5027867;28;1317;-75
2021/05/30 00:03:01;;;;;;;;;;;20.00;63.10;;;;;;5024739;28;2324;-75
2021/05/30 00:05:26;;;;;;;;;;;20.10;63.10;;;;;;5024236;28;1379;-75
2021/05/30 00:07:55;;;;;;;;;;;20.10;63.20;;;;;;5026738;28;1255;-76
2021/05/30 00:10:20;;;;;;;;;;;20.00;63.10;;;;;;5011281;28;1334;-75
2021/05/30 00:12:46;;;;;;;;;;;20.10;63.20;;;;;;5027343;28;1188;-75
2021/05/30 00:15:11;;;;;;;;;;;20.00;63.10;;;;;;5029412;28;1164;-77
2021/05/30 00:17:37;;;;;;;;;;;20.00;63.10;;;;;;5033732;28;1135;-77
2021/05/30 00:20:04;;;;;;;;;;;20.00;63.10;;;;;;5030313;28;1299;-76
2021/05/30 00:22:32;;;;;;;;;;;20.00;63.10;;;;;;5032306;28;1898;-77
2021/05/30 00:24:58;;;;;;;;;;;20.10;63.30;;;;;;5031547;28;1211;-77
2021/05/30 00:27:24;;;;;;;;;;;20.00;63.20;;;;;;5033572;28;1055;-77
2021/05/30 00:29:49;;;;;;;;;;;20.00;63.20;;;;;;5033750;28;1270;-77
2021/05/30 00:32:15;;;;;;;;;;;20.00;63.20;;;;;;5033349;28;1170;-77
2021/05/30 00:34:40;;;;;;;;;;;20.00;63.20;;;;;;5031545;28;1179;-77
2021/05/30 00:37:06;;;;;;;;;;;20.10;63.30;;;;;;5032487;28;1476;-77
2021/05/30 00:39:31;;;;;;;;;;;20.00;63.30;;;;;;5032813;28;1371;-76
2021/05/30 00:41:57;;;;;;;;;;;20.10;63.30;;;;;;5032482;28;1099;-77
2021/05/30 00:44:22;;;;;;;;;;;20.00;63.30;;;;;;5033084;28;1977;-76
2021/05/30 00:46:48;;;;;;;;;;;20.00;63.30;;;;;;5032616;28;1126;-76
2021/05/30 00:49:14;;;;;;;;;;;20.00;63.30;;;;;;5031768;28;1127;-74
2021/05/30 00:51:39;;;;;;;;;;;20.00;63.30;;;;;;5033656;28;1275;-75
2021/05/30 00:54:04;;;;;;;;;;;20.00;63.30;;;;;;5033763;28;1263;-75
2021/05/30 00:56:30;;;;;;;;;;;20.00;63.30;;;;;;5031865;28;1150;-75
2021/05/30 00:58:55;;;;;;;;;;;20.00;63.30;;;;;;5033339;28;1091;-76
2021/05/30 01:01:21;;;;;;;;;;;20.00;63.30;;;;;;5031930;28;1287;-76
2021/05/30 01:03:46;;;;;;;;;;;20.00;63.30;;;;;;5032754;28;1910;-75
2021/05/30 01:06:12;;;;;;;;;;;20.00;63.30;;;;;;5032087;28;1116;-76
2021/05/30 01:08:37;;;;;;;;;;;20.00;63.30;;;;;;5033418;28;1064;-75
2021/05/30 01:11:14;;;;;;;;;;;20.00;63.30;;;;;;5031748;28;1457;-77
2021/05/30 01:13:39;;;;;;;;;;;20.00;63.30;;;;;;5033964;28;1126;-76
2021/05/30 01:16:04;;;;;;;;;;;20.00;63.30;;;;;;5018619;28;1043;-77
2021/05/30 01:18:30;;;;;;;;;;;20.00;63.30;;;;;;5032810;28;1083;-77
2021/05/30 01:20:55;;;;;;;;;;;20.00;63.30;;;;;;5011608;28;1289;-77
2021/05/30 01:23:21;;;;;;;;;;;20.00;63.30;;;;;;5024104;28;1944;-77
2021/05/30 01:25:47;;;;;;;;;;;20.00;63.30;;;;;;5030798;28;1103;-77
2021/05/30 01:28:13;;;;;;;;;;;20.00;63.30;;;;;;5033043;28;1107;-75
2021/05/30 01:30:38;;;;;;;;;;;20.00;63.40;;;;;;5030204;28;1292;-74
2021/05/30 01:33:04;;;;;;;;;;;20.00;63.40;;;;;;5031460;28;1116;-74
2021/05/30 01:35:29;;;;;;;;;;;20.00;63.40;;;;;;5031026;28;1107;-75
2021/05/30 01:37:54;;;;;;;;;;;20.00;63.40;;;;;;5032212;28;1127;-74
2021/05/30 01:40:20;;;;;;;;;;;20.00;63.40;;;;;;5031929;28;1292;-75
2021/05/30 01:42:46;;;;;;;;;;;20.00;63.50;;;;;;5032650;28;1914;-75
2021/05/30 01:45:12;;;;;;;;;;;20.00;63.50;;;;;;5030462;28;1096;-75
2021/05/30 01:47:38;;;;;;;;;;;20.00;63.40;;;;;;5032595;28;1028;-75
2021/05/30 01:50:04;;;;;;;;;;;20.00;63.40;;;;;;5014482;28;1294;-75
2021/05/30 01:52:29;;;;;;;;;;;20.00;63.50;;;;;;5031023;28;1137;-75
2021/05/30 01:54:55;;;;;;;;;;;20.00;63.40;;;;;;5031427;28;1115;-74
2021/05/30 01:57:20;;;;;;;;;;;20.00;63.50;;;;;;5032466;28;1115;-74
2021/05/30 01:59:46;;;;;;;;;;;19.90;63.40;;;;;;5030834;28;1248;-74
2021/05/30 02:02:11;;;;;;;;;;;20.00;63.50;;;;;;5030880;28;1890;-74
2021/05/30 02:04:41;;;;;;;;;;;20.00;63.50;;;;;;5030958;28;1100;-74
2021/05/30 02:07:07;;;;;;;;;;;20.00;63.50;;;;;;5031196;28;1088;-74
2021/05/30 02:09:33;;;;;;;;;;;19.90;63.40;;;;;;5031022;28;1263;-74
2021/05/30 02:11:59;;;;;;;;;;;20.00;63.50;;;;;;5030788;28;1147;-76
2021/05/30 02:14:24;;;;;;;;;;;20.00;63.50;;;;;;5026783;28;1111;-76
2021/05/30 02:16:50;;;;;;;;;;;20.00;63.50;;;;;;5023077;28;1040;-74
2021/05/30 02:19:15;;;;;;;;;;;20.00;63.50;;;;;;5031934;28;1087;-73
2021/05/30 02:21:50;;;;;;;;;;;20.00;63.50;;;;;;5011343;28;1197;-74
2021/05/30 02:24:16;;;;;;;;;;;19.90;63.50;;;;;;5029912;28;1973;-75
2021/05/30 02:26:41;;;;;;;;;;;19.90;63.50;;;;;;5030445;28;1155;-76
2021/05/30 02:29:07;;;;;;;;;;;19.90;63.50;;;;;;5031857;28;1158;-75
2021/05/30 02:31:32;;;;;;;;;;;19.90;63.50;;;;;;5030654;28;1226;-73
2021/05/30 02:33:58;;;;;;;;;;;19.90;63.50;;;;;;5032131;28;1031;-73
2021/05/30 02:36:23;;;;;;;;;;;19.90;63.50;;;;;;5031241;28;1113;-74
2021/05/30 02:38:49;;;;;;;;;;;19.90;63.50;;;;;;5031555;28;1023;-74
2021/05/30 02:41:14;;;;;;;;;;;19.90;63.50;;;;;;5030808;28;1319;-75
2021/05/30 02:43:40;;;;;;;;;;;19.90;63.50;;;;;;5030175;28;1906;-77
2021/05/30 02:46:05;;;;;;;;;;;19.90;63.50;;;;;;5031361;28;1043;-77
2021/05/30 02:48:31;;;;;;;;;;;19.90;63.50;;;;;;5034930;28;1044;-75
2021/05/30 02:50:59;;;;;;;;;;;19.90;63.50;;;;;;5035885;28;1202;-76
2021/05/30 02:53:28;;;;;;;;;;;19.90;63.50;;;;;;5035702;28;1107;-76
2021/05/30 02:55:54;;;;;;;;;;;19.90;63.50;;;;;;5033659;28;1160;-75
2021/05/30 02:58:19;;;;;;;;;;;19.90;63.50;;;;;;5034623;28;1162;-77
2021/05/30 03:00:44;;;;;;;;;;;19.90;63.50;;;;;;5034596;28;1282;-77
2021/05/30 03:03:10;;;;;;;;;;;19.90;63.60;;;;;;5014672;28;1898;-77
2021/05/30 03:05:35;;;;;;;;;;;19.90;63.60;;;;;;5025788;28;1076;-75
2021/05/30 03:08:01;;;;;;;;;;;19.90;63.60;;;;;;5034254;28;1195;-75
2021/05/30 03:10:26;;;;;;;;;;;19.90;63.50;;;;;;5035647;28;1268;-75
2021/05/30 03:12:52;;;;;;;;;;;19.90;63.60;;;;;;5035043;28;1096;-75
2021/05/30 03:15:17;;;;;;;;;;;19.90;63.60;;;;;;5023533;28;1169;-75
2021/05/30 03:17:42;;;;;;;;;;;19.90;63.60;;;;;;5033999;28;1116;-75
2021/05/30 03:20:08;;;;;;;;;;;19.90;63.60;;;;;;5035083;28;1225;-75
2021/05/30 03:22:34;;;;;;;;;;;19.90;63.60;;;;;;5034812;28;1887;-76
2021/05/30 03:24:59;;;;;;;;;;;19.90;63.60;;;;;;5034326;28;1115;-76
2021/05/30 03:27:24;;;;;;;;;;;19.90;63.60;;;;;;5034987;28;905;-76
2021/05/30 03:29:50;;;;;;;;;;;19.90;63.60;;;;;;5035102;28;1143;-76
2021/05/30 03:32:15;;;;;;;;;;;19.90;63.60;;;;;;5036062;28;1116;-75
2021/05/30 03:34:41;;;;;;;;;;;19.90;63.60;;;;;;5035322;28;1079;-77
2021/05/30 03:37:07;;;;;;;;;;;19.90;63.60;;;;;;5017116;28;1187;-77
2021/05/30 03:39:34;;;;;;;;;;;19.90;63.60;;;;;;5017288;28;1285;-77
2021/05/30 03:42:08;;;;;;;;;;;19.90;63.60;;;;;;5034048;28;1095;-77
2021/05/30 03:44:33;;;;;;;;;;;19.90;63.50;;;;;;5034536;28;1071;-75
2021/05/30 03:46:58;;;;;;;;;;;19.90;63.50;;;;;;5032878;28;1112;-75
2021/05/30 03:49:24;;;;;;;;;;;19.90;63.50;;;;;;5034491;28;1118;-76
2021/05/30 03:51:49;;;;;;;;;;;19.90;63.50;;;;;;5034685;28;1127;-74
2021/05/30 03:54:15;;;;;;;;;;;20.00;63.50;;;;;;5034893;28;1138;-74
2021/05/30 03:56:40;;;;;;;;;;;19.90;63.40;;;;;;5033575;28;1107;-74
2021/05/30 03:59:06;;;;;;;;;;;19.90;63.60;;;;;;5032397;28;1088;-74
2021/05/30 04:01:31;;;;;;;;;;;20.00;63.40;;;;;;5034160;28;1313;-76
2021/05/30 04:03:56;;;;;;;;;;;20.00;63.40;;;;;;5034320;28;1958;-76
2021/05/30 04:06:22;;;;;;;;;;;20.00;63.30;;;;;;5033354;28;1110;-74
2021/05/30 04:08:48;;;;;;;;;;;20.00;63.30;;;;;;5034112;28;1103;-74
2021/05/30 04:11:13;;;;;;;;;;;20.00;63.30;;;;;;5033911;28;1240;-75
2021/05/30 04:13:39;;;;;;;;;;;20.00;63.20;;;;;;5034381;28;1080;-75
2021/05/30 04:16:04;;;;;;;;;;;20.00;63.20;;;;;;5032316;28;1221;-75
2021/05/30 04:18:30;;;;;;;;;;;20.00;63.20;;;;;;5033054;28;1538;-76
2021/05/30 04:20:55;;;;;;;;;;;20.00;63.20;;;;;;5032966;28;1286;-74
2021/05/30 04:23:21;;;;;;;;;;;20.00;63.20;;;;;;5035860;28;1973;-78
2021/05/30 04:25:46;;;;;;;;;;;20.00;63.20;;;;;;5037659;28;1063;-77
2021/05/30 04:28:12;;;;;;;;;;;20.00;63.10;;;;;;5038100;28;1083;-78
2021/05/30 04:30:37;;;;;;;;;;;20.10;63.20;;;;;;5037698;28;1374;-77
2021/05/30 04:33:03;;;;;;;;;;;20.00;63.10;;;;;;5032585;28;1081;-76
2021/05/30 04:35:28;;;;;;;;;;;20.00;63.10;;;;;;5032325;28;1305;-76
2021/05/30 04:37:54;;;;;;;;;;;20.10;63.10;;;;;;5033828;28;1079;-76
2021/05/30 04:40:23;;;;;;;;;;;20.00;63.10;;;;;;5033416;28;1277;-76
2021/05/30 04:42:48;;;;;;;;;;;20.00;63.10;;;;;;5032003;28;1942;-76
2021/05/30 04:45:14;;;;;;;;;;;20.00;63.10;;;;;;5032065;28;1112;-76
2021/05/30 04:47:39;;;;;;;;;;;20.00;63.10;;;;;;5032185;28;1092;-73
2021/05/30 04:50:05;;;;;;;;;;;20.00;63.00;;;;;;5033421;28;1351;-74
2021/05/30 04:52:31;;;;;;;;;;;20.00;63.00;;;;;;5033231;28;1063;-73
2021/05/30 04:54:56;;;;;;;;;;;20.00;63.00;;;;;;5031352;28;1096;-74
2021/05/30 04:57:22;;;;;;;;;;;20.00;63.10;;;;;;5032042;28;1092;-73
2021/05/30 04:59:47;;;;;;;;;;;20.10;63.10;;;;;;5033054;28;1380;-73
2021/05/30 05:02:12;;;;;;;;;;;20.10;63.10;;;;;;5033497;28;1883;-73
2021/05/30 05:04:38;;;;;;;;;;;20.00;63.00;;;;;;5032739;28;1112;-73
2021/05/30 05:07:03;;;;;;;;;;;20.00;63.00;;;;;;5032998;28;1127;-73
2021/05/30 05:09:29;;;;;;;;;;;20.10;63.10;;;;;;5032520;28;1209;-73
2021/05/30 05:11:54;;;;;;;;;;;20.10;63.10;;;;;;5032459;28;921;-72
2021/05/30 05:14:20;;;;;;;;;;;20.00;63.00;;;;;;5032873;28;1111;-73
2021/05/30 05:16:45;;;;;;;;;;;20.10;63.10;;;;;;5032353;28;1098;-72
2021/05/30 05:19:10;;;;;;;;;;;20.10;63.10;;;;;;5032654;28;1150;-75
2021/05/30 05:21:36;;;;;;;;;;;20.00;63.00;;;;;;5032740;28;1279;-75
2021/05/30 05:24:01;;;;;;;;;;;20.00;63.00;;;;;;5032928;28;1902;-75
2021/05/30 05:26:27;;;;;;;;;;;20.10;63.00;;;;;;5030894;28;1057;-73
2021/05/30 05:28:53;;;;;;;;;;;20.00;63.00;;;;;;5032254;28;1110;-74
2021/05/30 05:31:19;;;;;;;;;;;20.00;63.00;;;;;;5031421;28;1236;-74
2021/05/30 05:33:44;;;;;;;;;;;20.10;63.00;;;;;;5033180;28;1095;-74
2021/05/30 05:36:09;;;;;;;;;;;20.10;63.10;;;;;;5031281;28;1076;-74
2021/05/30 05:38:35;;;;;;;;;;;20.10;63.10;;;;;;5032991;28;1142;-74
2021/05/30 05:41:01;;;;;;;;;;;20.00;63.00;;;;;;5011494;28;1224;-74
2021/05/30 05:43:26;;;;;;;;;;;20.10;63.00;;;;;;5031661;28;1972;-74
2021/05/30 05:45:52;;;;;;;;;;;20.10;63.00;;;;;;5031097;28;1055;-74
2021/05/30 05:48:17;;;;;;;;;;;20.10;63.00;;;;;;5031433;28;1208;-73
2021/05/30 05:50:43;;;;;;;;;;;20.10;63.00;;;;;;5031412;28;1298;-75
2021/05/30 05:53:08;;;;;;;;;;;20.00;63.00;;;;;;5031926;28;1107;-75
2021/05/30 05:55:34;;;;;;;;;;;20.10;63.00;;;;;;5030198;28;1072;-75
2021/05/30 05:57:59;;;;;;;;;;;20.10;63.00;;;;;;5031169;28;1150;-75
2021/05/30 06:00:25;;;;;;;;;;;20.10;63.00;;;;;;5030977;28;1278;-75
2021/05/30 06:02:51;;;;;;;;;;;20.10;63.00;;;;;;5030748;28;1965;-75
2021/05/30 06:05:18;;;;;;;;;;;20.10;63.00;;;;;;5030689;28;1151;-75
2021/05/30 06:07:44;;;;;;;;;;;20.10;63.00;;;;;;5032394;28;1107;-75
2021/05/30 06:10:10;;;;;;;;;;;20.10;63.00;;;;;;5030992;28;1260;-74
2021/05/30 06:12:35;;;;;;;;;;;20.00;63.00;;;;;;5030751;28;1401;-75
2021/05/30 06:15:01;;;;;;;;;;;20.10;63.00;;;;;;5031069;28;1256;-74
2021/05/30 06:17:26;;;;;;;;;;;20.10;63.00;;;;;;5030800;28;1108;-75
2021/05/30 06:19:52;;;;;;;;;;;20.10;63.00;;;;;;5032080;28;1289;-74
2021/05/30 06:22:18;;;;;;;;;;;20.10;63.00;;;;;;5031118;28;1906;-74
2021/05/30 06:24:43;;;;;;;;;;;20.10;63.00;;;;;;5035205;28;1052;-74
2021/05/30 06:27:09;;;;;;;;;;;20.10;63.00;;;;;;5034701;28;1088;-74
2021/05/30 06:29:35;;;;;;;;;;;20.10;63.00;;;;;;5033360;28;1295;-74
2021/05/30 06:32:00;;;;;;;;;;;20.10;63.00;;;;;;5034813;28;1182;-73
2021/05/30 06:34:26;;;;;;;;;;;20.10;63.00;;;;;;5035778;28;1067;-74
2021/05/30 06:36:52;;;;;;;;;;;20.10;63.00;;;;;;5033455;28;974;-70
2021/05/30 06:39:18;;;;;;;;;;;20.10;63.10;;;;;;5022036;28;1830;-70
2021/05/30 06:41:43;;;;;;;;;;;20.10;63.00;;;;;;5043762;28;1777;-70
2021/05/30 06:44:08;;;;;;;;;;;20.10;63.00;;;;;;5042927;28;1879;-71
2021/05/30 06:46:34;;;;;;;;;;;20.10;63.00;;;;;;5034017;28;1064;-70
2021/05/30 06:48:59;;;;;;;;;;;20.10;63.00;;;;;;5035016;28;1151;-73
2021/05/30 06:51:30;;;;;;;;;;;20.10;63.00;;;;;;5035243;28;1314;-73
2021/05/30 06:53:55;;;;;;;;;;;20.10;63.00;;;;;;5034481;28;1143;-72
2021/05/30 06:56:21;;;;;;;;;;;20.10;63.00;;;;;;5034688;28;1107;-73
2021/05/30 06:58:46;;;;;;;;;;;20.10;63.00;;;;;;5035035;28;1132;-73
2021/05/30 07:01:12;;;;;;;;;;;20.10;63.00;;;;;;5036171;28;1281;-73
2021/05/30 07:03:38;;;;;;;;;;;20.10;63.00;;;;;;5035674;28;1934;-73
2021/05/30 07:06:03;;;;;;;;;;;20.10;63.00;;;;;;5033347;28;1111;-71
2021/05/30 07:08:29;;;;;;;;;;;20.10;63.00;;;;;;5035255;28;1040;-72
2021/05/30 07:10:54;;;;;;;;;;;20.10;63.00;;;;;;5035599;28;1298;-72
2021/05/30 07:13:20;;;;;;;;;;;20.10;63.00;;;;;;5035363;28;1123;-72
2021/05/30 07:15:45;;;;;;;;;;;20.10;63.00;;;;;;5034182;28;1201;-72
2021/05/30 07:18:11;;;;;;;;;;;20.10;63.00;;;;;;5034203;28;1103;-72
2021/05/30 07:20:42;;;;;;;;;;;20.10;63.00;;;;;;5034951;28;1292;-72
2021/05/30 07:23:08;;;;;;;;;;;20.10;63.00;;;;;;5033748;28;1969;-72
2021/05/30 07:25:34;;;;;;;;;;;20.10;63.00;;;;;;5034025;28;1118;-72
2021/05/30 07:27:59;;;;;;;;;;;20.10;63.00;;;;;;5034939;28;1051;-71
2021/05/30 07:30:25;;;;;;;;;;;20.10;63.00;;;;;;5035234;28;1310;-70
2021/05/30 07:32:50;;;;;;;;;;;20.10;63.00;;;;;;5034626;28;1059;-71
2021/05/30 07:35:16;;;;;;;;;;;20.10;63.00;;;;;;5032890;28;1107;-71
2021/05/30 07:37:41;;;;;;;;;;;20.10;63.00;;;;;;5033478;28;1037;-71
2021/05/30 07:40:07;;;;;;;;;;;20.10;63.00;;;;;;5035308;28;1296;-70
2021/05/30 07:42:32;;;;;;;;;;;20.10;63.00;;;;;;5035461;28;1905;-71
2021/05/30 07:44:58;;;;;;;;;;;20.10;63.00;;;;;;5033743;28;1147;-71
2021/05/30 07:47:24;;;;;;;;;;;20.10;63.00;;;;;;5034719;28;1071;-72
2021/05/30 07:49:49;;;;;;;;;;;20.10;63.00;;;;;;5032874;28;1363;-72
2021/05/30 07:52:15;;;;;;;;;;;20.10;63.00;;;;;;5034521;28;1052;-72
2021/05/30 07:54:40;;;;;;;;;;;20.10;63.00;;;;;;5032357;28;1154;-72
2021/05/30 07:57:06;;;;;;;;;;;20.10;63.00;;;;;;5034515;28;1107;-73
2021/05/30 07:59:31;;;;;;;;;;;20.10;63.00;;;;;;5033982;28;1274;-73
2021/05/30 08:01:58;;;;;;;;;;;20.10;63.00;;;;;;5034261;28;1064;-73
2021/05/30 08:04:23;;;;;;;;;;;20.10;63.10;;;;;;5033725;28;1902;-73
2021/05/30 08:06:48;;;;;;;;;;;20.10;63.10;;;;;;5033178;28;1110;-73
2021/05/30 08:09:14;;;;;;;;;;;20.00;63.00;;;;;;5034095;28;1162;-73
2021/05/30 08:11:39;;;;;;;;;;;20.00;63.00;;;;;;5032795;28;1220;-73
2021/05/30 08:14:05;;;;;;;;;;;20.00;63.10;;;;;;5033537;28;1099;-73
2021/05/30 08:16:30;;;;;;;;;;;20.00;63.00;;;;;;5033257;28;1146;-73
2021/05/30 08:18:56;;;;;;;;;;;20.00;63.10;;;;;;5032325;28;1045;-72
2021/05/30 08:21:21;;;;;;;;;;;20.10;63.10;;;;;;5033334;28;1207;-73
2021/05/30 08:23:47;;;;;;;;;;;20.00;63.10;;;;;;5032408;28;1914;-72
2021/05/30 08:26:12;;;;;;;;;;;20.10;63.20;;;;;;5031513;28;1111;-73
2021/05/30 08:28:38;;;;;;;;;;;20.00;63.10;;;;;;5032626;28;1060;-71
2021/05/30 08:31:03;;;;;;;;;;;20.10;63.20;;;;;;5032701;28;1226;-70
2021/05/30 08:33:29;;;;;;;;;;;20.00;63.10;;;;;;5033194;28;1086;-72
2021/05/30 08:35:54;;;;;;;;;;;20.10;63.20;;;;;;5033171;28;1170;-71
2021/05/30 08:38:20;;;;;;;;;;;20.00;63.20;;;;;;5032582;28;1143;-70
2021/05/30 08:40:46;;;;;;;;;;;20.00;64.00;;;;;;5033252;28;1314;-70
2021/05/30 08:43:11;;;;;;;;;;;20.00;63.20;;;;;;5032017;28;1914;-70
2021/05/30 08:45:37;;;;;;;;;;;20.00;63.20;;;;;;5031857;28;1067;-71
2021/05/30 08:48:02;;;;;;;;;;;20.00;63.20;;;;;;5033079;28;1079;-70
2021/05/30 08:50:28;;;;;;;;;;;20.00;63.20;;;;;;5033235;28;1211;-70
2021/05/30 08:52:53;;;;;;;;;;;20.00;63.20;;;;;;5031011;28;1068;-72
2021/05/30 08:55:19;;;;;;;;;;;20.00;63.30;;;;;;5031593;28;1250;-71
2021/05/30 08:57:44;;;;;;;;;;;20.00;63.30;;;;;;5032704;28;1170;-71
2021/05/30 09:00:10;;;;;;;;;;;20.00;63.30;;;;;;5032955;28;1263;-71
2021/05/30 09:02:36;;;;;;;;;;;20.00;63.30;;;;;;5031242;28;1894;-71
2021/05/30 09:05:02;;;;;;;;;;;20.00;63.30;;;;;;5030522;28;1433;-72
2021/05/30 09:07:40;;;;;;;;;;;20.00;63.30;;;;;;5032984;28;1102;-71
2021/05/30 09:10:06;;;;;;;;;;;20.00;63.30;;;;;;5034471;28;1343;-70
2021/05/30 09:12:37;;;;;;;;;;;20.00;63.40;;;;;;5030954;28;997;-71
2021/05/30 09:15:06;;;;;;;;;;;20.00;63.40;;;;;;5020502;28;1194;-72
2021/05/30 09:17:32;;;;;;;;;;;20.00;63.40;;;;;;5029337;28;1155;-71
2021/05/30 09:20:00;;;;;;;;;;;20.00;63.40;;;;;;5032784;28;1282;-71
2021/05/30 09:22:26;;;;;;;;;;;20.00;63.40;;;;;;5032614;28;1915;-72
2021/05/30 09:24:51;;;;;;;;;;;20.00;63.40;;;;;;5031747;28;1111;-71
2021/05/30 09:27:20;;;;;;;;;;;20.00;63.40;;;;;;5032579;28;1099;-71
2021/05/30 09:29:45;;;;;;;;;;;20.00;63.40;;;;;;5030884;28;1274;-71
2021/05/30 09:32:13;;;;;;;;;;;20.00;63.40;;;;;;5030955;28;1457;-71
2021/05/30 09:34:41;;;;;;;;;;;20.00;63.40;;;;;;5032253;28;1107;-72
2021/05/30 09:37:07;;;;;;;;;;;20.00;63.40;;;;;;5005476;28;1322;-73
2021/05/30 09:39:36;;;;;;;;;;;20.00;63.40;;;;;;5025042;28;1382;-72
2021/05/30 09:42:20;;;;;;;;;;;20.00;63.50;;;;;;5031466;28;1072;-71
2021/05/30 09:44:55;;;;;;;;;;;20.00;63.50;;;;;;5032551;28;1086;-71
2021/05/30 09:47:41;;;;;;;;;;;20.00;63.50;;;;;;5012709;28;1286;-71
2021/05/30 09:50:07;;;;;;;;;;;19.90;63.40;;;;;;5025451;28;1441;-71
2021/05/30 09:52:40;;;;;;;;;;;19.90;63.40;;;;;;5031048;28;1076;-71
2021/05/30 09:55:32;;;;;;;;;;;20.00;63.50;;;;;;5031481;28;1080;-72
2021/05/30 09:58:15;;;;;;;;;;;19.90;63.50;;;;;;5025665;28;1296;-72
2021/05/30 10:00:59;;;;;;;;;;;19.90;63.40;;;;;;5032873;28;1257;-71
2021/05/30 10:03:24;;;;;;;;;;;19.90;64.20;;;;;;5032460;28;1953;-71
2021/05/30 10:05:50;;;;;;;;;;;19.90;63.50;;;;;;5030462;28;1083;-72
2021/05/30 10:08:15;;;;;;;;;;;20.00;63.60;;;;;;5030962;28;1057;-72
2021/05/30 10:10:41;;;;;;;;;;;19.90;63.50;;;;;;5032482;28;1241;-71
2021/05/30 10:13:06;;;;;;;;;;;19.90;63.50;;;;;;5032037;28;1075;-71
2021/05/30 10:15:32;;;;;;;;;;;19.90;63.50;;;;;;5023382;28;1192;-73
2021/05/30 10:17:58;;;;;;;;;;;19.90;63.50;;;;;;5026501;28;1918;-71
2021/05/30 10:20:23;;;;;;;;;;;19.90;63.50;;;;;;5035651;28;1864;-72
2021/05/30 10:25:29;;;;;;;;;;;19.90;64.30;;;;;;5044885;28;1923;-63
2021/05/30 10:28:07;;;;;;;;;;;19.90;63.50;;;;;;5045914;28;1897;-67
2021/05/30 10:30:32;;;;;;;;;;;19.90;63.50;;;;;;5061445;28;1393;-67
2021/05/30 10:33:24;;;;;;;;;;;19.90;63.50;;;;;;5050398;28;1695;-67
2021/05/30 10:35:51;;;;;;;;;;;19.90;63.60;;;;;;5049399;28;1035;-67
2021/05/30 10:38:36;;;;;;;;;;;19.90;63.60;;;;;;5066210;22;1936;-75
2021/05/30 10:41:24;;;;;;;;;;;19.90;63.60;;;;;;5043604;28;1924;-73
2021/05/30 10:43:50;;;;;;;;;;;19.90;63.60;;;;;;5045791;28;1922;-74
2021/05/30 10:46:15;;;;;;;;;;;19.90;63.60;;;;;;5041794;28;1247;-75
2021/05/30 10:48:41;;;;;;;;;;;19.90;63.70;;;;;;5024102;28;1416;-73
2021/05/30 10:53:34;;;;;;;;;;;19.90;63.60;;;;;;5035637;28;1723;-74
2021/05/30 10:56:12;;;;;;;;;;;19.90;63.60;;;;;;5038581;28;1267;-74
2021/05/30 10:58:37;;;;;;;;;;;19.90;63.70;;;;;;5040423;28;1357;-74
2021/05/30 11:01:03;;;;;;;;;;;19.90;63.60;;;;;;5040246;28;1366;-75
2021/05/30 11:03:28;;;;;;;;;;;19.90;63.60;;;;;;5027829;28;1906;-74
2021/05/30 11:05:56;;;;;;;;;;;19.90;63.70;;;;;;5029945;28;1407;-75
2021/05/30 11:08:31;;;;;;;;;;;19.90;63.60;;;;;;5033396;28;1398;-75
2021/05/30 11:11:15;;;;;;;;;;;19.90;63.70;;;;;;5036085;28;1437;-73
2021/05/30 11:13:47;;;;;;;;;;;19.90;63.70;;;;;;5034831;28;1463;-74
2021/05/30 11:16:13;;;;;;;;;;;19.90;63.70;;;;;;5021260;28;1287;-74
2021/05/30 11:18:38;;;;;;;;;;;19.90;63.70;;;;;;5034240;28;1480;-75
2021/05/30 11:21:04;;;;;;;;;;;19.90;63.70;;;;;;5035362;28;1413;-74
2021/05/30 11:23:29;;;;;;;;;;;19.90;63.70;;;;;;5034755;28;1965;-75
2021/05/30 11:25:56;;;;;;;;;;;19.90;63.70;;;;;;5034173;28;1393;-74
2021/05/30 11:28:22;;;;;;;;;;;19.90;63.70;;;;;;5035400;28;1642;-75
2021/05/30 11:30:55;;;;;;;;;;;19.90;63.70;;;;;;5034607;28;1180;-75
2021/05/30 11:33:25;;;;;;;;;;;19.90;63.70;;;;;;5014506;28;1601;-75
2021/05/30 11:35:51;;;;;;;;;;;19.90;63.70;;;;;;5034465;28;1319;-75
2021/05/30 11:38:17;;;;;;;;;;;19.90;63.70;;;;;;5033754;28;1556;-75
2021/05/30 11:40:43;;;;;;;;;;;19.90;63.70;;;;;;5034111;28;1204;-75
2021/05/30 11:43:12;;;;;;;;;;;19.90;63.70;;;;;;5035061;28;1922;-75
2021/05/30 11:45:38;;;;;;;;;;;19.90;63.70;;;;;;5035571;28;1401;-74
2021/05/30 11:48:08;;;;;;;;;;;19.90;63.80;;;;;;5034107;28;1294;-74
2021/05/30 11:50:34;;;;;;;;;;;19.90;63.80;;;;;;5035402;28;1171;-74
2021/05/30 11:52:59;;;;;;;;;;;19.80;63.80;;;;;;5033320;28;1120;-74
2021/05/30 11:55:24;;;;;;;;;;;19.90;63.80;;;;;;5035126;28;1434;-74
2021/05/30 11:57:50;;;;;;;;;;;19.90;63.80;;;;;;5035136;28;1337;-74
2021/05/30 12:00:15;;;;;;;;;;;19.90;63.80;;;;;;5033828;28;1564;-74
2021/05/30 12:02:45;;;;;;;;;;;19.80;63.70;;;;;;5033395;28;1910;-73
2021/05/30 12:05:14;;;;;;;;;;;19.80;63.70;;;;;;5034498;28;1662;-75
2021/05/30 12:07:39;;;;;;;;;;;19.90;63.80;;;;;;5034701;28;1378;-75
2021/05/30 12:10:09;;;;;;;;;;;19.90;63.80;;;;;;5033312;28;989;-74
2021/05/30 12:12:38;;;;;;;;;;;19.90;63.80;;;;;;5034765;28;1683;-74
2021/05/30 12:15:17;;;;;;;;;;;19.90;63.80;;;;;;5032838;28;1469;-74
2021/05/30 12:17:54;;;;;;;;;;;19.90;64.20;;;;;;5033147;28;1621;-75
2021/05/30 12:20:30;;;;;;;;;;;19.90;63.80;;;;;;5028441;28;1428;-73
2021/05/30 12:23:25;;;;;;;;;;;19.80;63.80;;;;;;5032729;28;1915;-74
2021/05/30 12:25:52;;;;;;;;;;;19.90;63.80;;;;;;5015365;28;1455;-75
2021/05/30 12:28:18;;;;;;;;;;;19.90;63.80;;;;;;5034417;28;1199;-75
2021/05/30 12:30:46;;;;;;;;;;;19.90;63.80;;;;;;5034594;28;1355;-74
2021/05/30 12:33:11;;;;;;;;;;;19.80;63.80;;;;;;5037426;28;1862;-75
2021/05/30 12:35:44;;;;;;;;;;;19.80;63.80;;;;;;5042603;28;1332;-74
2021/05/30 12:38:13;;;;;;;;;;;19.90;63.90;;;;;;5039669;28;1524;-75
2021/05/30 12:40:38;;;;;;;;;;;19.80;63.80;;;;;;5041033;28;1267;-75
2021/05/30 12:43:04;;;;;;;;;;;19.80;63.80;;;;;;5030674;28;2027;-75
2021/05/30 12:45:31;;;;;;;;;;;19.80;63.80;;;;;;5042435;28;1322;-75
2021/05/30 12:47:56;;;;;;;;;;;19.80;64.60;;;;;;5048133;28;1752;-74
2021/05/30 12:50:21;;;;;;;;;;;19.80;63.90;;;;;;5040846;28;1485;-74
2021/05/30 12:52:51;;;;;;;;;;;19.80;63.90;;;;;;5048994;28;1653;-74
2021/05/30 12:55:17;;;;;;;;;;;19.80;63.90;;;;;;5032504;28;1462;-74
2021/05/30 12:57:48;;;;;;;;;;;19.80;63.90;;;;;;5032713;28;1505;-75
2021/05/30 13:00:16;;;;;;;;;;;19.80;63.90;;;;;;5032355;28;1665;-74
2021/05/30 13:02:42;;;;;;;;;;;19.80;63.90;;;;;;5033434;28;1967;-74
2021/05/30 13:05:07;;;;;;;;;;;19.80;63.90;;;;;;5028415;28;2119;-72
2021/05/30 13:07:33;;;;;;;;;;;19.80;63.90;;;;;;5030160;28;2162;-73
2021/05/30 13:10:03;;;;;;;;;;;19.80;63.90;;;;;;5045873;28;1289;-73
2021/05/30 13:12:31;;;;;;;;;;;19.80;63.90;;;;;;5042063;28;1864;-73
2021/05/30 13:15:11;;;;;;;;;;;19.80;63.90;;;;;;5032455;28;936;-73
2021/05/30 13:17:37;;;;;;;;;;;19.80;64.00;;;;;;5042414;28;1378;-73
2021/05/30 13:20:06;;;;;;;;;;;19.80;63.90;;;;;;5031998;28;1166;-73
2021/05/30 13:22:32;;;;;;;;;;;19.80;63.90;;;;;;5032383;28;1969;-72
2021/05/30 13:24:58;;;;;;;;;;;19.80;63.90;;;;;;5033548;28;1393;-73
2021/05/30 13:27:23;;;;;;;;;;;19.80;63.90;;;;;;5032720;28;1320;-73
2021/05/30 13:30:02;;;;;;;;;;;19.80;63.90;;;;;;5032187;28;1368;-73
2021/05/30 13:32:28;;;;;;;;;;;19.80;64.00;;;;;;5019938;28;1150;-73
2021/05/30 13:34:53;;;;;;;;;;;19.80;63.90;;;;;;5030995;28;1367;-73
2021/05/30 13:37:19;;;;;;;;;;;19.80;63.90;;;;;;5032986;28;1948;-73
2021/05/30 13:39:44;;;;;;;;;;;19.80;64.00;;;;;;5031188;28;2700;-73
2021/05/30 13:42:10;;;;;;;;;;;19.80;64.00;;;;;;5033115;28;1474;-73
2021/05/30 13:44:35;;;;;;;;;;;19.80;64.00;;;;;;5033103;28;1902;-72
2021/05/30 13:47:00;;;;;;;;;;;19.80;63.90;;;;;;5032510;28;1506;-72
2021/05/30 13:49:26;;;;;;;;;;;19.80;63.90;;;;;;5033527;28;1049;-72
2021/05/30 13:51:51;;;;;;;;;;;19.80;63.90;;;;;;5033075;28;1573;-74
2021/05/30 13:54:17;;;;;;;;;;;19.80;63.90;;;;;;5037423;28;1265;-73
2021/05/30 13:56:42;;;;;;;;;;;19.80;63.90;;;;;;5039090;28;1340;-73
2021/05/30 13:59:09;;;;;;;;;;;19.80;64.00;;;;;;5041604;28;1281;-71
2021/05/30 14:01:34;;;;;;;;;;;19.80;64.00;;;;;;5041233;28;1377;-71
2021/05/30 14:04:00;;;;;;;;;;;19.80;64.00;;;;;;5039093;28;1944;-73
2021/05/30 14:06:25;;;;;;;;;;;19.80;64.00;;;;;;5032424;28;1290;-72
2021/05/30 14:08:53;;;;;;;;;;;19.80;64.00;;;;;;5031847;28;1648;-72
2021/05/30 14:11:19;;;;;;;;;;;19.80;64.00;;;;;;5032350;28;1447;-73
2021/05/30 14:13:44;;;;;;;;;;;19.80;64.00;;;;;;5031497;28;1354;-73
2021/05/30 14:16:09;;;;;;;;;;;19.80;64.00;;;;;;5031937;28;1581;-73
2021/05/30 14:18:35;;;;;;;;;;;19.80;64.00;;;;;;5026664;28;1435;-73
2021/05/30 14:21:01;;;;;;;;;;;19.80;64.00;;;;;;5034604;28;1369;-73
2021/05/30 14:23:26;;;;;;;;;;;19.80;64.00;;;;;;5033844;28;1906;-72
2021/05/30 14:25:52;;;;;;;;;;;19.80;64.00;;;;;;5022865;28;1730;-71
2021/05/30 14:28:17;;;;;;;;;;;19.80;64.00;;;;;;5037122;28;1324;-68
2021/05/30 14:30:42;;;;;;;;;;;19.80;64.00;;;;;;5032786;28;1557;-70
2021/05/30 14:33:08;;;;;;;;;;;19.80;64.00;;;;;;5030272;28;1059;-69